Time;durP1;ratioP1;P1;durP2;ratioP2;P2;SDS_P1;SDS_P2;PMS_P1;PMS_P2;Temp;Humidity;BMP_temperature;BMP_pressure;BME280_temperature;BME280_humidity;BME280_pressure;Samples;Min_cycle;Max_cycle;Signal;HPM_P1;HPM_P2
2022/05/18 00:00:56;;;;;;;6.30;4.65;;;;;;;;;;4946352;28;20034;-70
2022/05/18 00:03:28;;;;;;;6.50;4.82;;;;;;;;;;4944109;28;20054;-70
2022/05/18 00:05:54;;;;;;;7.38;4.15;;;;;;;;;;4943824;28;20094;-71
2022/05/18 00:08:19;;;;;;;5.90;4.50;;;;;;;;;;4944113;28;20039;-70
2022/05/18 00:10:48;;;;;;;4.88;4.30;;;;;;;;;;4943877;28;20471;-68
2022/05/18 00:13:13;;;;;;;6.97;4.63;;;;;;;;;;4943163;28;20094;-68
2022/05/18 00:15:43;;;;;;;8.13;4.93;;;;;;;;;;4947565;28;20043;-69
2022/05/18 00:18:09;;;;;;;5.28;4.10;;;;;;;;;;4943608;28;20023;-70
2022/05/18 00:20:35;;;;;;;5.45;4.07;;;;;;;;;;4943538;28;20298;-68
2022/05/18 00:23:02;;;;;;;7.88;4.22;;;;;;;;;;4943374;28;20093;-69
2022/05/18 00:25:32;;;;;;;6.45;4.30;;;;;;;;;;4943066;28;20049;-71
2022/05/18 00:27:58;;;;;;;6.90;4.50;;;;;;;;;;4943724;28;20125;-71
2022/05/18 00:30:25;;;;;;;6.22;4.40;;;;;;;;;;4945514;28;20059;-69
2022/05/18 00:32:51;;;;;;;6.60;3.40;;;;;;;;;;4943363;28;20039;-68
2022/05/18 00:35:17;;;;;;;4.65;3.80;;;;;;;;;;4947502;28;20168;-68
2022/05/18 00:37:43;;;;;;;7.13;3.92;;;;;;;;;;4944632;28;20027;-69
2022/05/18 00:40:11;;;;;;;4.15;3.60;;;;;;;;;;4943848;28;20058;-70
2022/05/18 00:42:36;;;;;;;5.43;3.70;;;;;;;;;;4949971;28;20472;-68
2022/05/18 00:45:03;;;;;;;7.60;3.42;;;;;;;;;;4942889;28;20046;-68
2022/05/18 00:47:29;;;;;;;4.60;3.60;;;;;;;;;;4942933;28;20065;-70
2022/05/18 00:50:15;;;;;;;5.43;3.92;;;;;;;;;;4943321;28;20528;-70
2022/05/18 00:52:50;;;;;;;6.88;3.65;;;;;;;;;;4943528;28;20054;-67
2022/05/18 00:55:19;;;;;;;5.75;3.60;;;;;;;;;;4950524;28;20043;-68
2022/05/18 00:57:54;;;;;;;5.45;3.25;;;;;;;;;;4944538;28;20126;-69
2022/05/18 01:00:20;;;;;;;8.05;4.20;;;;;;;;;;4944924;28;20039;-68
2022/05/18 01:02:53;;;;;;;10.05;3.35;;;;;;;;;;4932492;28;20526;-69
2022/05/18 01:05:22;;;;;;;11.00;4.13;;;;;;;;;;4942809;28;20493;-70
2022/05/18 01:07:52;;;;;;;7.07;4.22;;;;;;;;;;4943029;28;20031;-70
2022/05/18 01:10:18;;;;;;;6.25;5.10;;;;;;;;;;4942324;28;20528;-70
2022/05/18 01:12:45;;;;;;;8.95;4.50;;;;;;;;;;4943036;28;20504;-70
2022/05/18 01:15:14;;;;;;;7.63;4.13;;;;;;;;;;4943504;28;20062;-70
2022/05/18 01:17:43;;;;;;;4.68;4.20;;;;;;;;;;4944691;28;20035;-70
2022/05/18 01:20:13;;;;;;;5.85;4.65;;;;;;;;;;4938385;28;20062;-71
2022/05/18 01:22:44;;;;;;;6.10;5.47;;;;;;;;;;4941971;28;20035;-71
2022/05/18 01:25:09;;;;;;;6.75;5.68;;;;;;;;;;4942500;28;20488;-68
2022/05/18 01:27:35;;;;;;;7.72;5.50;;;;;;;;;;4949706;28;20046;-68
2022/05/18 01:30:01;;;;;;;8.30;4.97;;;;;;;;;;4946880;28;20038;-71
2022/05/18 01:32:38;;;;;;;6.57;4.38;;;;;;;;;;4947499;28;20047;-68
2022/05/18 01:35:04;;;;;;;4.63;3.70;;;;;;;;;;4946130;28;20039;-71
2022/05/18 01:37:30;;;;;;;6.28;4.60;;;;;;;;;;4946746;28;20023;-70
2022/05/18 01:39:59;;;;;;;5.47;4.20;;;;;;;;;;4946616;28;20637;-68
2022/05/18 01:42:28;;;;;;;7.78;3.85;;;;;;;;;;4945960;28;20049;-71
2022/05/18 01:44:54;;;;;;;6.95;4.82;;;;;;;;;;4945520;28;20202;-68
2022/05/18 01:47:19;;;;;;;11.00;6.22;;;;;;;;;;4949090;28;21089;-70
2022/05/18 01:49:46;;;;;;;6.97;5.97;;;;;;;;;;4946432;28;20039;-69
2022/05/18 01:52:13;;;;;;;11.32;6.47;;;;;;;;;;4945665;28;20043;-70
2022/05/18 01:54:42;;;;;;;12.40;6.95;;;;;;;;;;4948331;28;20030;-70
2022/05/18 01:57:07;;;;;;;9.25;6.70;;;;;;;;;;4943904;28;20034;-70
2022/05/18 01:59:34;;;;;;;7.07;6.25;;;;;;;;;;4946263;28;20038;-67
2022/05/18 02:02:00;;;;;;;11.10;6.88;;;;;;;;;;4953728;28;20149;-68
2022/05/18 02:04:26;;;;;;;11.15;7.22;;;;;;;;;;4944728;28;20113;-67
2022/05/18 02:06:51;;;;;;;11.07;6.47;;;;;;;;;;4945574;28;20050;-70
2022/05/18 02:09:19;;;;;;;6.90;6.20;;;;;;;;;;4946065;28;20075;-68
2022/05/18 02:11:45;;;;;;;8.43;6.25;;;;;;;;;;4941895;28;20089;-69
2022/05/18 02:14:11;;;;;;;9.63;6.05;;;;;;;;;;4944586;28;20039;-70
2022/05/18 02:16:36;;;;;;;8.75;6.05;;;;;;;;;;4948947;28;20047;-69
2022/05/18 02:19:02;;;;;;;6.30;5.57;;;;;;;;;;4945745;28;20142;-67
2022/05/18 02:21:28;;;;;;;7.38;5.07;;;;;;;;;;4945763;28;20066;-67
2022/05/18 02:23:53;;;;;;;6.43;5.70;;;;;;;;;;4945457;28;21027;-69
2022/05/18 02:26:19;;;;;;;9.10;7.38;;;;;;;;;;4944832;28;20057;-68
2022/05/18 02:28:45;;;;;;;12.48;8.05;;;;;;;;;;4945862;28;20118;-70
2022/05/18 02:31:12;;;;;;;11.95;8.18;;;;;;;;;;4948590;28;20050;-69
2022/05/18 02:33:38;;;;;;;8.48;7.13;;;;;;;;;;4947010;28;20039;-68
2022/05/18 02:36:06;;;;;;;9.23;7.60;;;;;;;;;;4945494;28;20038;-69
2022/05/18 02:38:32;;;;;;;9.60;7.30;;;;;;;;;;4945713;28;20762;-69
2022/05/18 02:40:59;;;;;;;9.32;7.40;;;;;;;;;;4948650;28;20042;-68
2022/05/18 02:43:25;;;;;;;9.85;7.38;;;;;;;;;;4945080;28;20043;-70
2022/05/18 02:46:03;;;;;;;7.78;6.95;;;;;;;;;;4947931;28;20030;-69
2022/05/18 02:48:28;;;;;;;14.30;7.38;;;;;;;;;;4945267;28;20215;-69
2022/05/18 02:50:55;;;;;;;9.52;6.78;;;;;;;;;;4945231;28;20137;-69
2022/05/18 02:53:21;;;;;;;11.73;7.43;;;;;;;;;;4944865;28;20043;-67
2022/05/18 02:58:30;;;;;;;14.50;8.13;;;;;;;;;;4944476;28;20043;-70
2022/05/18 03:00:56;;;;;;;12.52;7.82;;;;;;;;;;4947658;28;20031;-68
2022/05/18 03:03:21;;;;;;;7.90;6.78;;;;;;;;;;4944322;28;20047;-70
2022/05/18 03:05:47;;;;;;;11.23;7.05;;;;;;;;;;4945260;28;20046;-69
2022/05/18 03:08:13;;;;;;;15.45;7.03;;;;;;;;;;4944697;28;20093;-67
2022/05/18 03:10:38;;;;;;;9.18;7.05;;;;;;;;;;4944237;28;20043;-71
2022/05/18 03:13:04;;;;;;;8.95;6.28;;;;;;;;;;4944922;28;20031;-71
2022/05/18 03:15:29;;;;;;;9.90;6.97;;;;;;;;;;4947622;28;20880;-69
2022/05/18 03:17:55;;;;;;;8.48;6.70;;;;;;;;;;4944977;28;20039;-71
2022/05/18 03:25:48;;;;;;;9.27;5.63;;;;;;;;;;4944756;28;20126;-69
2022/05/18 03:28:13;;;;;;;10.10;6.38;;;;;;;;;;4932753;28;20082;-70
2022/05/18 03:30:39;;;;;;;10.60;6.60;;;;;;;;;;4942302;28;20834;-70
2022/05/18 03:33:05;;;;;;;9.35;6.45;;;;;;;;;;4943038;28;20101;-69
2022/05/18 03:35:31;;;;;;;9.23;6.45;;;;;;;;;;4943957;28;20035;-70
2022/05/18 03:37:56;;;;;;;9.98;6.57;;;;;;;;;;4944557;28;20469;-70
2022/05/18 03:40:21;;;;;;;8.50;7.10;;;;;;;;;;4944679;28;20050;-69
2022/05/18 03:42:47;;;;;;;9.48;7.18;;;;;;;;;;4943527;28;20043;-69
2022/05/18 03:45:13;;;;;;;9.68;7.10;;;;;;;;;;4911699;28;20038;-69
2022/05/18 03:47:38;;;;;;;10.13;7.22;;;;;;;;;;4945751;28;20100;-70
2022/05/18 03:50:04;;;;;;;16.42;8.60;;;;;;;;;;4944153;28;20062;-69
2022/05/18 03:52:30;;;;;;;16.70;7.90;;;;;;;;;;4944275;28;20563;-70
2022/05/18 03:54:55;;;;;;;10.32;7.65;;;;;;;;;;4942658;28;20035;-70
2022/05/18 03:57:20;;;;;;;18.70;8.98;;;;;;;;;;4944430;28;20047;-69
2022/05/18 03:59:46;;;;;;;12.98;8.35;;;;;;;;;;4943890;28;20039;-69
2022/05/18 04:02:11;;;;;;;11.98;8.18;;;;;;;;;;4947019;28;20039;-70
2022/05/18 04:04:37;;;;;;;10.95;8.23;;;;;;;;;;4909296;28;20497;-70
2022/05/18 04:07:02;;;;;;;9.85;8.00;;;;;;;;;;4946699;28;20039;-70
2022/05/18 04:09:28;;;;;;;14.27;8.20;;;;;;;;;;4943912;28;20054;-69
2022/05/18 04:11:53;;;;;;;10.85;8.00;;;;;;;;;;4951172;28;20035;-69
2022/05/18 04:14:19;;;;;;;10.23;7.53;;;;;;;;;;4943503;28;20042;-70
2022/05/18 04:16:48;;;;;;;11.50;7.30;;;;;;;;;;4942661;28;20048;-69
2022/05/18 04:19:15;;;;;;;10.60;6.88;;;;;;;;;;4943630;28;20093;-69
2022/05/18 04:21:41;;;;;;;11.38;6.65;;;;;;;;;;4943742;28;20035;-71
2022/05/18 04:24:06;;;;;;;8.93;6.95;;;;;;;;;;4946070;28;20046;-71
2022/05/18 04:26:32;;;;;;;14.38;7.13;;;;;;;;;;4944479;28;20031;-71
2022/05/18 04:28:57;;;;;;;10.05;7.50;;;;;;;;;;4950105;28;20106;-71
2022/05/18 04:31:23;;;;;;;13.07;7.85;;;;;;;;;;4945953;28;20110;-71
2022/05/18 04:33:48;;;;;;;14.77;9.52;;;;;;;;;;4943020;28;20039;-71
2022/05/18 04:36:14;;;;;;;14.77;9.60;;;;;;;;;;4943589;28;20034;-71
2022/05/18 04:38:39;;;;;;;10.65;8.80;;;;;;;;;;4942642;28;20061;-70
2022/05/18 04:41:05;;;;;;;14.88;7.93;;;;;;;;;;4943332;28;20039;-71
2022/05/18 04:43:34;;;;;;;12.77;8.13;;;;;;;;;;4948822;28;20078;-71
2022/05/18 04:46:00;;;;;;;14.25;7.95;;;;;;;;;;4948240;28;20580;-72
2022/05/18 04:48:30;;;;;;;14.27;7.60;;;;;;;;;;4944367;28;20054;-71
2022/05/18 04:50:56;;;;;;;12.07;7.57;;;;;;;;;;4925710;28;20138;-72
2022/05/18 04:53:21;;;;;;;12.07;8.02;;;;;;;;;;4948907;28;20058;-70
2022/05/18 04:55:48;;;;;;;10.95;8.23;;;;;;;;;;4943138;28;20043;-71
2022/05/18 04:58:13;;;;;;;12.60;6.85;;;;;;;;;;4945216;28;20874;-71
2022/05/18 05:00:40;;;;;;;8.55;7.30;;;;;;;;;;4946631;28;20126;-73
2022/05/18 05:03:05;;;;;;;11.02;7.32;;;;;;;;;;4947960;28;20030;-72
2022/05/18 05:05:31;;;;;;;10.80;7.85;;;;;;;;;;4950930;28;20381;-71
2022/05/18 05:07:57;;;;;;;10.18;6.88;;;;;;;;;;4951791;28;20040;-71
2022/05/18 05:10:23;;;;;;;8.75;6.40;;;;;;;;;;4951706;28;20069;-72
2022/05/18 05:12:48;;;;;;;8.30;5.90;;;;;;;;;;4947986;28;20122;-72
2022/05/18 05:15:15;;;;;;;7.80;5.78;;;;;;;;;;4939104;28;20134;-71
2022/05/18 05:17:41;;;;;;;7.75;6.25;;;;;;;;;;4944269;28;20069;-71
2022/05/18 05:20:08;;;;;;;8.63;6.70;;;;;;;;;;4946824;28;20791;-71
2022/05/18 05:22:33;;;;;;;9.07;7.57;;;;;;;;;;4945301;28;20043;-71
2022/05/18 05:24:59;;;;;;;10.27;6.88;;;;;;;;;;4941146;28;20600;-71
2022/05/18 05:27:24;;;;;;;11.98;6.60;;;;;;;;;;4940996;28;20111;-71
2022/05/18 05:29:50;;;;;;;7.47;6.57;;;;;;;;;;4941382;28;20043;-71
2022/05/18 05:32:16;;;;;;;14.88;7.55;;;;;;;;;;4926359;28;20062;-72
2022/05/18 05:34:42;;;;;;;9.60;7.32;;;;;;;;;;4940755;28;20127;-72
2022/05/18 05:37:08;;;;;;;8.43;7.45;;;;;;;;;;4946299;28;20058;-71
2022/05/18 05:39:33;;;;;;;9.95;7.03;;;;;;;;;;4945434;28;20110;-71
2022/05/18 05:41:59;;;;;;;11.20;7.70;;;;;;;;;;4949599;28;20106;-72
2022/05/18 05:44:25;;;;;;;12.43;7.63;;;;;;;;;;4941550;28;20039;-72
2022/05/18 05:46:50;;;;;;;10.60;7.65;;;;;;;;;;4947057;28;20031;-72
2022/05/18 05:49:16;;;;;;;11.02;7.15;;;;;;;;;;4947183;28;20051;-71
2022/05/18 05:51:42;;;;;;;9.60;7.32;;;;;;;;;;4943637;28;20125;-72
2022/05/18 05:54:08;;;;;;;10.38;7.57;;;;;;;;;;4945296;28;20049;-74
2022/05/18 05:56:35;;;;;;;8.63;7.18;;;;;;;;;;4950260;28;20035;-73
2022/05/18 05:59:00;;;;;;;16.70;7.43;;;;;;;;;;4950167;28;20047;-73
2022/05/18 06:01:26;;;;;;;10.32;7.15;;;;;;;;;;4950447;28;20110;-71
2022/05/18 06:03:51;;;;;;;8.20;7.40;;;;;;;;;;4950926;28;20058;-73
2022/05/18 06:06:19;;;;;;;13.63;7.55;;;;;;;;;;4953168;28;20403;-73
2022/05/18 06:08:44;;;;;;;8.73;6.20;;;;;;;;;;4952696;28;20122;-74
2022/05/18 06:11:13;;;;;;;10.02;7.68;;;;;;;;;;4949092;28;20097;-75
2022/05/18 06:13:39;;;;;;;8.65;6.57;;;;;;;;;;4948573;28;20496;-74
2022/05/18 06:16:06;;;;;;;8.85;6.82;;;;;;;;;;4953939;28;20492;-73
2022/05/18 06:18:31;;;;;;;7.72;6.22;;;;;;;;;;4952384;28;20511;-74
2022/05/18 06:20:59;;;;;;;8.00;6.10;;;;;;;;;;4956113;28;20043;-73
2022/05/18 06:23:24;;;;;;;6.95;5.25;;;;;;;;;;4958172;28;20449;-71
2022/05/18 06:25:50;;;;;;;9.27;5.63;;;;;;;;;;4957099;28;20163;-71
2022/05/18 06:28:16;;;;;;;9.43;5.63;;;;;;;;;;4952307;28;20031;-71
2022/05/18 06:30:41;;;;;;;6.90;5.00;;;;;;;;;;4952812;28;20114;-70
2022/05/18 06:33:07;;;;;;;8.20;5.93;;;;;;;;;;4955943;28;20480;-71
2022/05/18 06:35:33;;;;;;;8.38;5.32;;;;;;;;;;4956251;28;20403;-71
2022/05/18 06:37:58;;;;;;;7.82;5.38;;;;;;;;;;4955236;28;20118;-71
2022/05/18 06:43:10;;;;;;;6.97;5.43;;;;;;;;;;4910173;28;20055;-71
2022/05/18 06:45:35;;;;;;;6.53;5.15;;;;;;;;;;4944717;28;20102;-71
2022/05/18 06:48:01;;;;;;;9.07;5.80;;;;;;;;;;4944005;28;20039;-71
2022/05/18 06:50:27;;;;;;;8.13;5.43;;;;;;;;;;4942795;28;20046;-71
2022/05/18 06:52:52;;;;;;;5.43;4.93;;;;;;;;;;4943126;28;20109;-71
2022/05/18 06:55:17;;;;;;;7.93;5.40;;;;;;;;;;4942696;28;20050;-71
2022/05/18 06:57:43;;;;;;;7.70;5.53;;;;;;;;;;4951993;28;20046;-71
2022/05/18 07:00:09;;;;;;;6.80;5.28;;;;;;;;;;4944651;28;20049;-71
2022/05/18 07:02:34;;;;;;;9.70;5.40;;;;;;;;;;4946505;28;20166;-71
2022/05/18 07:05:00;;;;;;;10.80;4.70;;;;;;;;;;4944333;28;20173;-72
2022/05/18 07:07:25;;;;;;;6.20;4.85;;;;;;;;;;4945075;28;20117;-71
2022/05/18 07:09:51;;;;;;;11.10;5.07;;;;;;;;;;4945301;28;20042;-71
2022/05/18 07:12:16;;;;;;;6.85;4.47;;;;;;;;;;4946427;28;20106;-71
2022/05/18 07:14:42;;;;;;;5.47;4.95;;;;;;;;;;4943798;28;20042;-72
2022/05/18 07:17:07;;;;;;;7.63;5.00;;;;;;;;;;4948729;28;20500;-71
2022/05/18 07:19:33;;;;;;;7.65;5.38;;;;;;;;;;4944433;28;20042;-71
2022/05/18 07:21:58;;;;;;;7.28;5.30;;;;;;;;;;4949207;28;20034;-74
2022/05/18 07:24:23;;;;;;;7.03;4.80;;;;;;;;;;4950359;28;20042;-73
2022/05/18 07:26:49;;;;;;;5.65;5.07;;;;;;;;;;4956193;28;20042;-72
2022/05/18 07:29:14;;;;;;;6.38;4.85;;;;;;;;;;4953808;28;20112;-74
2022/05/18 07:34:24;;;;;;;8.27;5.32;;;;;;;;;;4950904;28;20699;-73
2022/05/18 07:36:51;;;;;;;6.70;5.43;;;;;;;;;;4957216;28;20034;-71
2022/05/18 07:39:17;;;;;;;6.95;5.45;;;;;;;;;;4955420;28;20035;-71
2022/05/18 07:41:43;;;;;;;9.15;5.32;;;;;;;;;;4958281;28;20396;-71
2022/05/18 07:44:10;;;;;;;8.25;4.93;;;;;;;;;;4950820;28;20488;-70
2022/05/18 07:46:35;;;;;;;9.18;5.38;;;;;;;;;;4952009;28;20558;-70
2022/05/18 07:49:01;;;;;;;10.25;5.65;;;;;;;;;;4944371;28;20252;-71
2022/05/18 07:51:27;;;;;;;5.82;5.15;;;;;;;;;;4945323;28;20411;-71
2022/05/18 07:53:52;;;;;;;8.20;5.88;;;;;;;;;;4943550;28;20043;-69
2022/05/18 07:56:18;;;;;;;7.85;5.15;;;;;;;;;;4951330;28;20042;-69
2022/05/18 07:58:44;;;;;;;12.45;6.32;;;;;;;;;;4945416;28;20027;-69
2022/05/18 08:01:09;;;;;;;7.07;6.07;;;;;;;;;;4947200;28;20053;-71
2022/05/18 08:03:35;;;;;;;6.40;5.80;;;;;;;;;;4943746;28;20051;-71
2022/05/18 08:06:02;;;;;;;10.77;5.60;;;;;;;;;;4948448;28;20503;-71
2022/05/18 08:08:28;;;;;;;8.35;5.90;;;;;;;;;;4946955;28;20043;-71
2022/05/18 08:16:25;;;;;;;10.98;6.07;;;;;;;;;;4949446;28;20047;-72
2022/05/18 08:18:52;;;;;;;9.23;5.55;;;;;;;;;;4937432;28;20594;-72
2022/05/18 08:21:18;;;;;;;15.63;5.80;;;;;;;;;;4952785;28;20059;-72
2022/05/18 08:23:44;;;;;;;11.23;6.50;;;;;;;;;;4954275;28;20030;-71
2022/05/18 08:26:10;;;;;;;8.98;6.05;;;;;;;;;;4952423;28;20088;-71
2022/05/18 08:28:36;;;;;;;7.28;5.57;;;;;;;;;;4953327;28;20038;-71
2022/05/18 08:31:01;;;;;;;8.10;5.35;;;;;;;;;;4952307;28;20046;-71
2022/05/18 08:33:31;;;;;;;8.15;5.18;;;;;;;;;;4953747;28;20073;-71
2022/05/18 08:35:56;;;;;;;5.68;5.03;;;;;;;;;;4950133;28;20038;-71
2022/05/18 08:38:22;;;;;;;5.63;5.00;;;;;;;;;;4950156;28;20031;-71
2022/05/18 08:41:08;;;;;;;5.53;5.03;;;;;;;;;;4953283;28;20049;-71
2022/05/18 08:43:36;;;;;;;6.90;5.38;;;;;;;;;;4952529;28;20451;-71
2022/05/18 08:46:26;;;;;;;9.07;5.15;;;;;;;;;;4951569;28;20047;-72
2022/05/18 08:49:28;;;;;;;6.75;4.63;;;;;;;;;;4953163;28;20090;-72
2022/05/18 08:52:00;;;;;;;;;;;;;;;;;;4953884;28;20042;-72
2022/05/18 08:54:40;;;;;;;5.22;4.70;;;;;;;;;;4952874;28;19918;-72
2022/05/18 08:57:17;;;;;;;6.40;4.63;;;;;;;;;;4956008;28;20039;-73
2022/05/18 08:59:45;;;;;;;6.00;4.25;;;;;;;;;;4941795;28;20523;-72
2022/05/18 09:02:21;;;;;;;6.20;3.90;;;;;;;;;;4941919;28;20062;-71
2022/05/18 09:04:58;;;;;;;7.93;4.47;;;;;;;;;;4942113;28;20440;-70
2022/05/18 09:07:29;;;;;;;8.00;3.90;;;;;;;;;;4945381;28;20046;-70
2022/05/18 09:10:12;;;;;;;7.90;4.13;;;;;;;;;;4950307;28;20183;-70
2022/05/18 09:12:40;;;;;;;5.03;4.07;;;;;;;;;;4940880;28;20043;-71
2022/05/18 09:15:07;;;;;;;4.53;3.55;;;;;;;;;;4942268;28;20081;-71
2022/05/18 09:17:42;;;;;;;10.10;4.07;;;;;;;;;;4945353;28;20039;-71
2022/05/18 09:20:24;;;;;;;5.32;3.80;;;;;;;;;;4946439;28;20031;-71
2022/05/18 09:22:56;;;;;;;7.25;3.92;;;;;;;;;;4924659;28;20061;-71
2022/05/18 09:25:31;;;;;;;7.32;3.75;;;;;;;;;;4942387;28;20045;-71
2022/05/18 09:28:08;;;;;;;5.28;3.90;;;;;;;;;;4942541;28;20031;-72
2022/05/18 09:30:44;;;;;;;5.30;2.83;;;;;;;;;;4945579;28;20034;-70
2022/05/18 09:33:18;;;;;;;5.40;3.22;;;;;;;;;;4928127;28;20035;-71
2022/05/18 09:35:49;;;;;;;4.70;3.17;;;;;;;;;;4941142;28;20863;-70
2022/05/18 09:38:32;;;;;;;5.97;3.60;;;;;;;;;;4941714;28;20423;-71
2022/05/18 09:40:59;;;;;;;4.80;3.33;;;;;;;;;;4941752;28;20043;-71
2022/05/18 09:43:55;;;;;;;3.45;2.47;;;;;;;;;;4946075;28;20074;-71
2022/05/18 09:46:24;;;;;;;2.83;2.35;;;;;;;;;;4946196;28;20118;-70
2022/05/18 09:49:13;;;;;;;3.25;2.35;;;;;;;;;;4943869;28;20035;-71
2022/05/18 09:51:39;;;;;;;4.75;2.65;;;;;;;;;;4937108;28;20038;-71
2022/05/18 09:54:05;;;;;;;6.47;3.38;;;;;;;;;;4944865;28;20039;-71
2022/05/18 09:56:37;;;;;;;5.05;3.30;;;;;;;;;;4955307;28;20098;-71
2022/05/18 09:59:08;;;;;;;4.13;2.90;;;;;;;;;;4946032;28;20136;-70
2022/05/18 10:10:16;;;;;;;4.88;3.13;;;;;;;;;;4946467;28;20287;-69
2022/05/18 10:13:03;;;;;;;4.75;3.45;;;;;;;;;;4945378;28;20165;-71
2022/05/18 10:15:40;;;;;;;3.00;2.47;;;;;;;;;;4947239;28;20113;-70
2022/05/18 10:18:18;;;;;;;2.95;2.72;;;;;;;;;;4943437;28;20114;-70
2022/05/18 10:21:06;;;;;;;4.20;2.85;;;;;;;;;;4945880;28;20039;-71
2022/05/18 10:23:55;;;;;;;6.45;3.45;;;;;;;;;;4947186;28;20138;-71
2022/05/18 10:26:40;;;;;;;5.25;2.88;;;;;;;;;;4939048;28;20075;-71
2022/05/18 10:29:11;;;;;;;3.80;3.10;;;;;;;;;;4946696;28;20459;-70
2022/05/18 10:31:39;;;;;;;6.97;3.72;;;;;;;;;;4948461;28;20039;-70
2022/05/18 10:34:32;;;;;;;5.85;3.92;;;;;;;;;;4949463;28;20027;-71
2022/05/18 10:37:00;;;;;;;6.00;3.10;;;;;;;;;;4940910;28;20035;-70
2022/05/18 10:39:39;;;;;;;7.05;4.20;;;;;;;;;;4956183;28;20047;-70
2022/05/18 10:42:28;;;;;;;6.18;3.88;;;;;;;;;;4950139;28;20489;-69
2022/05/18 10:44:57;;;;;;;5.95;3.88;;;;;;;;;;4944212;28;20101;-69
2022/05/18 10:47:51;;;;;;;5.25;4.00;;;;;;;;;;4947665;28;20575;-69
2022/05/18 10:50:25;;;;;;;4.07;3.65;;;;;;;;;;4944874;28;20070;-68
2022/05/18 10:52:59;;;;;;;3.53;3.08;;;;;;;;;;4950571;28;20047;-68
2022/05/18 10:55:28;;;;;;;8.75;3.22;;;;;;;;;;4949840;28;20039;-69
2022/05/18 10:58:11;;;;;;;4.75;3.35;;;;;;;;;;4951286;28;20067;-69
2022/05/18 11:00:57;;;;;;;4.18;3.45;;;;;;;;;;4950816;28;20039;-69
2022/05/18 11:04:11;;;;;;;4.57;2.85;;;;;;;;;;4950386;28;20049;-70
2022/05/18 11:06:41;;;;;;;4.95;2.97;;;;;;;;;;4884722;28;20042;-69
2022/05/18 11:09:19;;;;;;;10.77;3.78;;;;;;;;;;4944214;28;20098;-69
2022/05/18 11:11:57;;;;;;;3.40;3.00;;;;;;;;;;4947483;28;20050;-68
2022/05/18 11:14:40;;;;;;;3.63;2.58;;;;;;;;;;4951764;28;20039;-69
2022/05/18 11:17:33;;;;;;;2.78;2.50;;;;;;;;;;4946297;28;20039;-69
2022/05/18 11:20:24;;;;;;;3.42;2.60;;;;;;;;;;4943881;28;20038;-69
2022/05/18 11:22:52;;;;;;;5.38;3.42;;;;;;;;;;4946324;28;20038;-69
2022/05/18 11:25:24;;;;;;;3.13;2.17;;;;;;;;;;4949754;28;20050;-69
2022/05/18 11:27:56;;;;;;;3.67;2.53;;;;;;;;;;4944191;28;20032;-69
2022/05/18 11:30:40;;;;;;;3.95;2.88;;;;;;;;;;4946225;28;20552;-70
2022/05/18 11:33:30;;;;;;;4.10;3.70;;;;;;;;;;4950284;28;20113;-69
2022/05/18 11:36:14;;;;;;;5.32;2.63;;;;;;;;;;4952170;28;20577;-69
2022/05/18 11:38:51;;;;;;;3.42;2.90;;;;;;;;;;4945799;28;20042;-69
2022/05/18 11:41:50;;;;;;;4.55;2.95;;;;;;;;;;4943695;28;20063;-70
2022/05/18 11:44:39;;;;;;;5.82;2.50;;;;;;;;;;4945434;28;20039;-68
2022/05/18 11:47:22;;;;;;;3.42;2.30;;;;;;;;;;4946784;28;20954;-69
2022/05/18 11:49:51;;;;;;;2.35;2.10;;;;;;;;;;4953577;28;20603;-68
2022/05/18 11:52:31;;;;;;;4.05;2.33;;;;;;;;;;4952799;28;20031;-70
2022/05/18 11:55:36;;;;;;;4.50;2.28;;;;;;;;;;4943561;28;20035;-70
2022/05/18 11:58:43;;;;;;;3.72;2.45;;;;;;;;;;4947074;28;20063;-70
2022/05/18 12:01:22;;;;;;;4.80;2.33;;;;;;;;;;4906354;28;20050;-70
2022/05/18 12:03:59;;;;;;;4.55;2.33;;;;;;;;;;4947545;28;20206;-70
2022/05/18 12:06:43;;;;;;;2.30;1.95;;;;;;;;;;4944092;28;20635;-69
2022/05/18 12:09:24;;;;;;;5.30;2.40;;;;;;;;;;4945303;28;20039;-70
2022/05/18 12:12:03;;;;;;;5.63;2.25;;;;;;;;;;4942762;28;20110;-70
2022/05/18 12:14:47;;;;;;;3.10;2.15;;;;;;;;;;4942888;28;20039;-70
2022/05/18 12:17:33;;;;;;;4.80;2.30;;;;;;;;;;4946640;28;20031;-70
2022/05/18 12:20:25;;;;;;;3.55;1.95;;;;;;;;;;4944630;28;20511;-69
2022/05/18 12:22:53;;;;;;;4.85;2.30;;;;;;;;;;4949435;28;20039;-69
2022/05/18 12:25:22;;;;;;;4.22;2.20;;;;;;;;;;4951807;28;20074;-69
2022/05/18 12:27:50;;;;;;;4.20;1.85;;;;;;;;;;4941414;28;20049;-69
2022/05/18 12:30:18;;;;;;;3.58;1.92;;;;;;;;;;4944093;28;20038;-69
2022/05/18 12:32:45;;;;;;;1.55;1.45;;;;;;;;;;4939348;28;20094;-69
2022/05/18 12:35:17;;;;;;;9.25;2.22;;;;;;;;;;4944004;28;20035;-68
2022/05/18 12:38:01;;;;;;;;;;;;;;;;;;4942267;28;20097;-69
2022/05/18 12:40:47;;;;;;;2.53;1.65;;;;;;;;;;4941595;28;19953;-69
2022/05/18 12:43:25;;;;;;;3.60;1.60;;;;;;;;;;4942308;28;20045;-69
2022/05/18 12:46:08;;;;;;;2.60;1.58;;;;;;;;;;4944552;28;20042;-69
2022/05/18 12:48:37;;;;;;;4.75;2.00;;;;;;;;;;4943067;28;20153;-68
2022/05/18 12:51:12;;;;;;;2.88;2.00;;;;;;;;;;4943317;28;20439;-68
2022/05/18 12:53:56;;;;;;;2.80;1.70;;;;;;;;;;4940491;28;20031;-68
2022/05/18 12:56:37;;;;;;;3.35;1.52;;;;;;;;;;4947733;28;20042;-69
2022/05/18 12:59:09;;;;;;;2.63;1.40;;;;;;;;;;4941367;28;20038;-69
2022/05/18 13:01:38;;;;;;;7.40;2.15;;;;;;;;;;4943189;28;20047;-68
2022/05/18 13:04:26;;;;;;;3.72;1.60;;;;;;;;;;4939835;28;20658;-69
2022/05/18 13:07:00;;;;;;;3.20;1.70;;;;;;;;;;4940740;28;20051;-68
2022/05/18 13:09:29;;;;;;;4.05;1.75;;;;;;;;;;4943382;28;20074;-70
2022/05/18 13:12:27;;;;;;;3.85;1.70;;;;;;;;;;4942851;28;20043;-70
2022/05/18 13:15:34;;;;;;;5.07;1.60;;;;;;;;;;4941162;28;20042;-70
2022/05/18 13:18:08;;;;;;;3.25;1.33;;;;;;;;;;4914254;28;20039;-70
2022/05/18 13:20:51;;;;;;;5.80;1.80;;;;;;;;;;4942700;28;20047;-70
2022/05/18 13:23:40;;;;;;;1.83;1.50;;;;;;;;;;4946849;28;20058;-70
2022/05/18 13:26:31;;;;;;;2.83;1.83;;;;;;;;;;4944539;28;20118;-70
2022/05/18 13:29:07;;;;;;;8.90;1.80;;;;;;;;;;4946298;28;20042;-70
2022/05/18 13:31:35;;;;;;;3.50;1.75;;;;;;;;;;4949317;28;20035;-70
2022/05/18 13:34:07;;;;;;;3.33;1.80;;;;;;;;;;4950030;28;20053;-71
2022/05/18 13:36:46;;;;;;;3.80;1.80;;;;;;;;;;4950718;28;20133;-69
2022/05/18 13:39:12;;;;;;;4.07;1.85;;;;;;;;;;4945871;28;20066;-69
2022/05/18 13:41:41;;;;;;;3.55;1.60;;;;;;;;;;4946447;28;20035;-70
2022/05/18 13:44:07;;;;;;;3.28;1.75;;;;;;;;;;4946441;28;20035;-70
2022/05/18 13:46:34;;;;;;;8.65;1.83;;;;;;;;;;4931296;28;20047;-69
2022/05/18 13:49:09;;;;;;;3.75;1.60;;;;;;;;;;4945675;28;20035;-69
2022/05/18 13:51:50;;;;;;;2.25;1.65;;;;;;;;;;4944350;28;20079;-69
2022/05/18 13:54:18;;;;;;;3.97;1.70;;;;;;;;;;4953302;28;20042;-70
2022/05/18 13:56:50;;;;;;;5.75;1.58;;;;;;;;;;4953982;28;20133;-70
2022/05/18 13:59:36;;;;;;;;;;;;;;;;;;4953083;28;20475;-69
2022/05/18 14:02:09;;;;;;;1.92;1.55;;;;;;;;;;4950716;28;19918;-70
2022/05/18 14:04:39;;;;;;;2.72;1.55;;;;;;;;;;4945431;28;21118;-71
2022/05/18 14:07:05;;;;;;;1.75;1.35;;;;;;;;;;4946213;28;20035;-71
2022/05/18 14:09:33;;;;;;;3.33;1.98;;;;;;;;;;4946312;28;20039;-70
2022/05/18 14:11:59;;;;;;;2.22;1.60;;;;;;;;;;4952779;28;20031;-71
2022/05/18 14:14:33;;;;;;;1.52;1.30;;;;;;;;;;4945484;28;20097;-70
2022/05/18 14:17:16;;;;;;;1.70;1.60;;;;;;;;;;4948798;28;20030;-70
2022/05/18 14:19:45;;;;;;;3.33;1.70;;;;;;;;;;4946119;28;20177;-71
2022/05/18 14:22:16;;;;;;;4.03;1.58;;;;;;;;;;4951226;28;20034;-71
2022/05/18 14:24:46;;;;;;;2.17;1.38;;;;;;;;;;4946726;28;20109;-71
2022/05/18 14:27:23;;;;;;;10.80;1.58;;;;;;;;;;4945753;28;20043;-71
2022/05/18 14:29:54;;;;;;;1.90;1.60;;;;;;;;;;4927686;28;20133;-71
2022/05/18 14:32:27;;;;;;;3.25;1.67;;;;;;;;;;4947144;28;20051;-70
2022/05/18 14:34:58;;;;;;;2.28;1.63;;;;;;;;;;4948637;28;20121;-70
2022/05/18 14:37:58;;;;;;;3.08;1.50;;;;;;;;;;4954803;28;20043;-71
2022/05/18 14:40:28;;;;;;;6.13;1.70;;;;;;;;;;4916476;28;20054;-71
2022/05/18 14:42:54;;;;;;;4.10;1.70;;;;;;;;;;4944468;28;20043;-72
2022/05/18 14:45:23;;;;;;;4.68;1.73;;;;;;;;;;4946951;28;20038;-71
2022/05/18 14:47:59;;;;;;;2.72;1.40;;;;;;;;;;4946254;28;20070;-71
2022/05/18 14:50:38;;;;;;;3.60;1.52;;;;;;;;;;4945504;28;20125;-70
2022/05/18 14:53:12;;;;;;;3.70;1.48;;;;;;;;;;4946475;28;20039;-71
2022/05/18 14:55:53;;;;;;;2.90;1.88;;;;;;;;;;4944543;28;20043;-71
2022/05/18 14:58:27;;;;;;;3.35;1.85;;;;;;;;;;4950666;28;20038;-71
2022/05/18 15:00:57;;;;;;;3.88;1.48;;;;;;;;;;4948531;28;20126;-71
2022/05/18 15:03:31;;;;;;;5.00;1.40;;;;;;;;;;4945356;28;20039;-70
2022/05/18 15:05:56;;;;;;;1.95;1.33;;;;;;;;;;4943305;28;20054;-69
2022/05/18 15:08:44;;;;;;;3.33;1.83;;;;;;;;;;4945126;28;20047;-71
2022/05/18 15:11:32;;;;;;;2.92;1.73;;;;;;;;;;4942013;28;20437;-70
2022/05/18 15:14:19;;;;;;;2.42;1.58;;;;;;;;;;4943455;28;20098;-70
2022/05/18 15:16:49;;;;;;;2.30;1.60;;;;;;;;;;4945272;28;20050;-70
2022/05/18 15:19:34;;;;;;;4.93;1.40;;;;;;;;;;4943734;28;20045;-70
2022/05/18 15:22:36;;;;;;;2.20;1.70;;;;;;;;;;4944320;28;20042;-70
2022/05/18 15:25:19;;;;;;;;;;;;;;;;;;4893913;28;20098;-70
2022/05/18 15:27:45;;;;;;;2.13;1.50;;;;;;;;;;4926714;28;19976;-70
2022/05/18 15:30:11;;;;;;;2.45;1.40;;;;;;;;;;4945180;28;20055;-70
2022/05/18 15:32:39;;;;;;;2.58;1.30;;;;;;;;;;4946868;28;20114;-70